createdAt,value
2018-02-21T00:01:03.631Z,0
2018-02-21T00:02:13.361Z,0
2018-02-21T00:03:23.345Z,0
2018-02-21T00:04:32.804Z,0
2018-02-21T00:05:42.811Z,0
2018-02-21T00:06:52.528Z,0
2018-02-21T00:08:02.573Z,0
2018-02-21T00:09:12.560Z,0
2018-02-21T00:10:22.562Z,0
2018-02-21T00:11:32.550Z,0
2018-02-21T00:12:42.578Z,0
2018-02-21T00:13:52.566Z,0
2018-02-21T00:15:01.751Z,0
2018-02-21T00:16:11.747Z,0
2018-02-21T00:17:21.729Z,0
2018-02-21T00:18:31.769Z,0
2018-02-21T00:19:41.492Z,0
2018-02-21T00:20:51.487Z,0
2018-02-21T00:22:01.218Z,0
2018-02-21T00:23:10.673Z,0
2018-02-21T00:24:20.394Z,0
2018-02-21T00:25:30.384Z,0
2018-02-21T00:26:40.371Z,0
2018-02-21T00:27:49.827Z,0
2018-02-21T00:28:59.817Z,0
2018-02-21T00:30:09.799Z,0
2018-02-21T00:31:19.787Z,0
2018-02-21T00:32:29.563Z,0
2018-02-21T00:33:39.283Z,0
2018-02-21T00:34:49.024Z,0
2018-02-21T00:35:59.015Z,0
2018-02-21T00:37:09.001Z,0
2018-02-21T00:38:18.994Z,0
2018-02-21T00:39:28.453Z,0
2018-02-21T00:40:38.179Z,0
2018-02-21T00:41:48.163Z,0
2018-02-21T00:42:58.150Z,0
2018-02-21T00:44:08.136Z,0
2018-02-21T00:45:17.858Z,0
2018-02-21T00:46:27.577Z,0
2018-02-21T00:47:37.571Z,0
2018-02-21T00:48:47.290Z,0
2018-02-21T00:49:57.063Z,0
2018-02-21T00:51:07.051Z,0
2018-02-21T00:52:16.904Z,0
2018-02-21T00:53:26.896Z,0
2018-02-21T00:54:36.616Z,0
2018-02-21T00:55:46.603Z,0
2018-02-21T00:56:56.344Z,0
2018-02-21T00:58:06.338Z,0
2018-02-21T00:59:16.328Z,0
2018-02-21T01:00:26.322Z,0
2018-02-21T01:01:36.313Z,0
2018-02-21T01:02:46.304Z,0
2018-02-21T01:03:56.302Z,0
2018-02-21T01:05:06.291Z,0
2018-02-21T01:06:16.287Z,0
2018-02-21T01:07:26.006Z,0
2018-02-21T01:08:35.726Z,0
2018-02-21T01:09:45.711Z,0
2018-02-21T01:10:55.699Z,0
2018-02-21T01:12:05.419Z,0
2018-02-21T01:13:15.411Z,0
2018-02-21T01:14:25.135Z,0
2018-02-21T01:15:34.855Z,0
2018-02-21T01:16:44.838Z,0
2018-02-21T01:17:54.560Z,0
2018-02-21T01:19:03.750Z,0
2018-02-21T01:20:13.744Z,0
2018-02-21T01:21:23.735Z,0
2018-02-21T01:22:33.454Z,0
2018-02-21T01:23:43.443Z,0
2018-02-21T01:24:53.438Z,0
2018-02-21T01:26:03.425Z,0
2018-02-21T01:27:13.140Z,0
2018-02-21T01:28:23.124Z,0
2018-02-21T01:29:32.850Z,0
2018-02-21T01:30:42.573Z,0
2018-02-21T01:31:52.566Z,0
2018-02-21T01:33:02.570Z,0
2018-02-21T01:34:12.557Z,0
2018-02-21T01:35:22.275Z,0
2018-02-21T01:36:32.263Z,0
2018-02-21T01:37:42.254Z,0
2018-02-21T01:38:51.976Z,0
2018-02-21T01:40:01.703Z,0
2018-02-21T01:41:11.688Z,0
2018-02-21T01:42:21.729Z,0
2018-02-21T01:43:31.442Z,0
2018-02-21T01:44:41.430Z,0
2018-02-21T01:45:51.416Z,0
2018-02-21T01:47:01.138Z,0
2018-02-21T01:48:11.125Z,0
2018-02-21T01:49:21.121Z,0
2018-02-21T01:50:31.152Z,0
2018-02-21T01:51:40.875Z,0
2018-02-21T01:52:50.855Z,0
2018-02-21T01:54:00.843Z,0
2018-02-21T01:55:10.567Z,0
2018-02-21T01:56:20.284Z,0
2018-02-21T01:57:30.269Z,0
2018-02-21T01:58:40.255Z,0
2018-02-21T01:59:49.984Z,0
2018-02-21T02:00:59.972Z,0
2018-02-21T02:02:09.691Z,0
2018-02-21T02:03:19.421Z,0
2018-02-21T02:04:29.142Z,0
2018-02-21T02:05:39.232Z,0
2018-02-21T02:06:49.226Z,0
2018-02-21T02:07:58.676Z,0
2018-02-21T02:09:08.671Z,0
2018-02-21T02:10:18.674Z,0
2018-02-21T02:11:28.666Z,0
2018-02-21T02:12:38.123Z,0
2018-02-21T02:13:48.114Z,0
2018-02-21T02:14:58.113Z,0
2018-02-21T02:16:07.829Z,0
2018-02-21T02:17:17.551Z,0
2018-02-21T02:18:27.545Z,0
2018-02-21T02:19:37.532Z,0
2018-02-21T02:20:46.982Z,0
2018-02-21T02:21:57.020Z,0
2018-02-21T02:23:07.007Z,0
2018-02-21T02:24:16.731Z,0
2018-02-21T02:25:26.446Z,0
2018-02-21T02:26:36.433Z,0
2018-02-21T02:27:46.152Z,0
2018-02-21T02:28:56.141Z,0
2018-02-21T02:30:06.140Z,0
2018-02-21T02:31:16.143Z,0
2018-02-21T02:32:25.873Z,0
2018-02-21T02:33:35.873Z,0
2018-02-21T02:34:45.869Z,0
2018-02-21T02:35:55.862Z,0
2018-02-21T02:37:05.860Z,0
2018-02-21T02:38:15.854Z,0
2018-02-21T02:39:25.582Z,0
2018-02-21T02:40:35.685Z,0
2018-02-21T02:41:45.695Z,0
2018-02-21T02:42:55.715Z,0
2018-02-21T02:44:05.185Z,0
2018-02-21T02:45:15.190Z,0
2018-02-21T02:46:25.183Z,0
2018-02-21T02:47:35.173Z,0
2018-02-21T02:48:44.896Z,0
2018-02-21T02:49:54.895Z,0
2018-02-21T02:51:04.616Z,0
2018-02-21T02:52:14.660Z,0
2018-02-21T02:53:24.392Z,0
2018-02-21T02:54:33.857Z,0
2018-02-21T02:55:43.600Z,0
2018-02-21T02:56:53.058Z,0
2018-02-21T02:58:03.110Z,0
2018-02-21T02:59:12.836Z,0
2018-02-21T03:00:22.823Z,0
2018-02-21T03:01:32.277Z,0
2018-02-21T03:02:42.279Z,0
2018-02-21T03:03:52.273Z,0
2018-02-21T03:05:02.269Z,0
2018-02-21T03:06:11.452Z,0
2018-02-21T03:07:21.441Z,0
2018-02-21T03:08:30.896Z,0
2018-02-21T03:09:40.884Z,0
2018-02-21T03:10:50.875Z,0
2018-02-21T03:12:00.862Z,0
2018-02-21T03:13:10.586Z,0
2018-02-21T03:14:20.579Z,0
2018-02-21T03:15:30.572Z,0
2018-02-21T03:16:40.564Z,0
2018-02-21T03:17:50.019Z,0
2018-02-21T03:18:59.740Z,0
2018-02-21T03:20:09.193Z,0
2018-02-21T03:21:19.185Z,0
2018-02-21T03:22:29.170Z,0
2018-02-21T03:23:38.896Z,0
2018-02-21T03:24:48.882Z,0
2018-02-21T03:25:58.865Z,0
2018-02-21T03:27:08.847Z,0
2018-02-21T03:28:18.566Z,0
2018-02-21T03:29:28.552Z,0
2018-02-21T03:30:38.282Z,0
2018-02-21T03:31:48.279Z,0
2018-02-21T03:32:58.282Z,0
2018-02-21T03:34:08.269Z,0
2018-02-21T03:35:18.263Z,0
2018-02-21T03:36:27.985Z,0
2018-02-21T03:37:37.967Z,0
2018-02-21T03:38:47.952Z,0
2018-02-21T03:39:57.936Z,0
2018-02-21T03:41:07.656Z,0
2018-02-21T03:42:17.650Z,0
2018-02-21T03:43:27.651Z,0
2018-02-21T03:44:37.105Z,0
2018-02-21T03:45:47.089Z,0
2018-02-21T03:46:57.078Z,0
2018-02-21T03:48:07.072Z,0
2018-02-21T03:49:17.056Z,0
2018-02-21T03:50:26.514Z,0
2018-02-21T03:51:36.234Z,0
2018-02-21T03:52:45.952Z,0
2018-02-21T03:53:55.941Z,0
2018-02-21T03:55:05.931Z,0
2018-02-21T03:56:15.864Z,0
2018-02-21T03:57:25.851Z,0
2018-02-21T03:58:35.834Z,0
2018-02-21T03:59:45.822Z,0
2018-02-21T04:04:06.021Z,0
2018-02-21T04:05:15.797Z,0
2018-02-21T04:06:25.793Z,0
2018-02-21T04:07:35.776Z,0
2018-02-21T04:08:45.766Z,0
2018-02-21T04:09:54.955Z,0
2018-02-21T04:11:04.943Z,0
2018-02-21T04:12:14.930Z,0
2018-02-21T04:13:24.656Z,0
2018-02-21T04:14:34.684Z,0
2018-02-21T04:15:44.410Z,0
2018-02-21T04:16:54.400Z,0
2018-02-21T04:18:03.850Z,0
2018-02-21T04:19:13.853Z,0
2018-02-21T04:20:23.837Z,0
2018-02-21T04:21:33.557Z,0
2018-02-21T04:22:43.556Z,0
2018-02-21T04:23:53.281Z,0
2018-02-21T04:25:03.268Z,0
2018-02-21T04:26:12.987Z,0
2018-02-21T04:27:22.982Z,0
2018-02-21T04:28:32.703Z,0
2018-02-21T04:29:42.426Z,0
2018-02-21T04:30:52.153Z,0
2018-02-21T04:32:01.876Z,0
2018-02-21T04:33:11.871Z,0
2018-02-21T04:34:21.858Z,0
2018-02-21T04:35:31.842Z,0
2018-02-21T04:36:41.561Z,0
2018-02-21T04:37:51.550Z,0
2018-02-21T04:39:01.283Z,0
2018-02-21T04:40:11.267Z,0
2018-02-21T04:41:21.259Z,0
2018-02-21T04:42:30.983Z,0
2018-02-21T04:43:40.460Z,0
2018-02-21T04:44:49.969Z,0
2018-02-21T04:45:59.804Z,0
2018-02-21T04:47:09.792Z,0
2018-02-21T04:48:19.796Z,0
2018-02-21T04:49:29.614Z,0
2018-02-21T04:50:39.340Z,0
2018-02-21T04:51:49.328Z,0
2018-02-21T04:52:59.320Z,0
2018-02-21T04:54:09.301Z,0
2018-02-21T04:55:19.287Z,0
2018-02-21T04:56:29.271Z,0
2018-02-21T04:57:39.262Z,0
2018-02-21T04:58:49.248Z,0
2018-02-21T04:59:58.981Z,0
2018-02-21T05:01:08.433Z,0
2018-02-21T05:02:18.417Z,0
2018-02-21T05:03:28.136Z,0
2018-02-21T05:04:38.130Z,0
2018-02-21T05:05:48.118Z,0
2018-02-21T05:06:57.843Z,0
2018-02-21T05:08:07.621Z,0
2018-02-21T05:09:17.612Z,0
2018-02-21T05:10:27.332Z,0
2018-02-21T05:11:36.783Z,0
2018-02-21T05:12:46.505Z,0
2018-02-21T05:13:56.594Z,0
2018-02-21T05:15:06.584Z,0
2018-02-21T05:16:16.575Z,0
2018-02-21T05:17:26.563Z,0
2018-02-21T05:18:36.551Z,0
2018-02-21T05:19:46.267Z,0
2018-02-21T05:20:55.986Z,0
2018-02-21T05:22:05.974Z,0
2018-02-21T05:23:15.694Z,0
2018-02-21T05:24:25.682Z,0
2018-02-21T05:25:35.137Z,0
2018-02-21T05:26:44.881Z,0
2018-02-21T05:27:54.869Z,0
2018-02-21T05:29:04.857Z,0
2018-02-21T05:30:14.588Z,0
2018-02-21T05:31:24.580Z,0
2018-02-21T05:32:34.299Z,0
2018-02-21T05:33:44.295Z,0
2018-02-21T05:34:54.279Z,0
2018-02-21T05:36:04.269Z,0
2018-02-21T05:37:13.770Z,0
2018-02-21T05:38:23.759Z,0
2018-02-21T05:39:33.748Z,0
2018-02-21T05:40:43.734Z,0
2018-02-21T05:41:53.730Z,0
2018-02-21T05:43:03.724Z,0
2018-02-21T05:44:13.709Z,0
2018-02-21T05:45:23.696Z,0
2018-02-21T05:46:33.684Z,0
2018-02-21T05:47:43.679Z,0
2018-02-21T05:48:53.665Z,0
2018-02-21T05:50:03.408Z,0
2018-02-21T05:51:13.132Z,0
2018-02-21T05:52:23.127Z,0
2018-02-21T05:53:33.113Z,0
2018-02-21T05:54:43.206Z,0
2018-02-21T05:55:53.256Z,0
2018-02-21T05:57:03.238Z,0
2018-02-21T05:58:13.228Z,0
2018-02-21T05:59:22.949Z,0
2018-02-21T06:00:32.931Z,0
2018-02-21T06:01:42.923Z,0
2018-02-21T06:02:52.917Z,0
2018-02-21T06:04:02.652Z,0
2018-02-21T06:05:12.751Z,0
2018-02-21T06:06:22.740Z,0
2018-02-21T06:07:32.733Z,0
2018-02-21T06:08:42.463Z,0
2018-02-21T06:09:52.445Z,0
2018-02-21T06:11:01.631Z,0
2018-02-21T06:12:11.355Z,0
2018-02-21T06:13:21.350Z,0
2018-02-21T06:14:31.342Z,0
2018-02-21T06:15:41.328Z,0
2018-02-21T06:16:51.046Z,0
2018-02-21T06:18:01.035Z,0
2018-02-21T06:19:10.761Z,0
2018-02-21T06:20:20.480Z,0
2018-02-21T06:21:30.205Z,0
2018-02-21T06:22:39.929Z,0
2018-02-21T06:23:49.649Z,0
2018-02-21T06:24:59.776Z,0
2018-02-21T06:26:09.505Z,0
2018-02-21T06:27:19.224Z,0
2018-02-21T06:28:28.957Z,0
2018-02-21T06:29:38.730Z,0
2018-02-21T06:30:48.452Z,5
2018-02-21T06:31:58.441Z,5
2018-02-21T06:33:08.429Z,5
2018-02-21T06:34:18.174Z,5
2018-02-21T06:35:27.905Z,5
2018-02-21T06:36:37.362Z,5
2018-02-21T06:37:47.084Z,5
2018-02-21T06:38:56.804Z,5
2018-02-21T06:40:06.262Z,10
2018-02-21T06:41:16.251Z,10
2018-02-21T06:42:26.242Z,10
2018-02-21T06:43:36.022Z,10
2018-02-21T06:44:45.483Z,10
2018-02-21T06:45:55.487Z,10
2018-02-21T06:47:05.210Z,15
2018-02-21T06:48:15.202Z,15
2018-02-21T06:49:25.189Z,15
2018-02-21T06:50:34.907Z,15
2018-02-21T06:51:44.900Z,15
2018-02-21T06:52:54.360Z,20
2018-02-21T06:54:04.360Z,20
2018-02-21T06:55:14.085Z,20
2018-02-21T06:56:24.070Z,20
2018-02-21T06:57:33.526Z,20
2018-02-21T06:58:43.515Z,25
2018-02-21T06:59:53.251Z,25
2018-02-21T07:01:02.980Z,25
2018-02-21T07:02:12.705Z,25
2018-02-21T07:03:22.703Z,25
2018-02-21T07:04:32.698Z,30
2018-02-21T07:05:42.420Z,30
2018-02-21T07:06:52.406Z,30
2018-02-21T07:08:02.401Z,30
2018-02-21T07:09:12.392Z,35
2018-02-21T07:10:22.120Z,35
2018-02-21T07:11:31.848Z,35
2018-02-21T07:12:41.851Z,40
2018-02-21T07:13:51.577Z,40
2018-02-21T07:15:01.301Z,40
2018-02-21T07:16:10.804Z,45
2018-02-21T07:17:20.795Z,45
2018-02-21T07:18:30.779Z,45
2018-02-21T07:19:40.770Z,50
2018-02-21T07:20:50.804Z,50
2018-02-21T07:22:00.789Z,50
2018-02-21T07:23:10.517Z,55
2018-02-21T07:24:20.500Z,60
2018-02-21T07:25:29.951Z,60
2018-02-21T07:26:39.413Z,65
2018-02-21T07:27:49.403Z,70
2018-02-21T07:28:59.136Z,75
2018-02-21T07:30:08.859Z,80
2018-02-21T07:31:18.874Z,80
2018-02-21T07:32:28.602Z,80
2018-02-21T07:33:38.646Z,85
2018-02-21T07:34:48.636Z,90
2018-02-21T07:35:58.099Z,90
2018-02-21T07:37:08.094Z,95
2018-02-21T07:38:17.583Z,100
2018-02-21T07:39:27.574Z,110
2018-02-21T07:40:37.564Z,110
2018-02-21T07:41:47.548Z,110
2018-02-21T07:42:57.545Z,115
2018-02-21T07:44:07.006Z,115
2018-02-21T07:45:16.659Z,115
2018-02-21T07:46:26.648Z,115
2018-02-21T07:47:36.379Z,115
2018-02-21T07:48:46.366Z,115
2018-02-21T07:49:56.358Z,115
2018-02-21T07:51:06.210Z,120
2018-02-21T07:52:15.940Z,120
2018-02-21T07:53:25.934Z,125
2018-02-21T07:54:35.923Z,130
2018-02-21T07:55:45.640Z,130
2018-02-21T07:56:55.728Z,135
2018-02-21T07:58:05.719Z,140
2018-02-21T07:59:15.735Z,140
2018-02-21T08:00:25.724Z,140
2018-02-21T08:01:35.444Z,140
2018-02-21T08:02:45.166Z,145
2018-02-21T08:03:54.887Z,145
2018-02-21T08:05:05.010Z,150
2018-02-21T08:06:14.466Z,155
2018-02-21T08:07:24.192Z,160
2018-02-21T08:08:34.185Z,165
2018-02-21T08:09:44.177Z,170
2018-02-21T08:10:54.166Z,180
2018-02-21T08:12:03.617Z,185
2018-02-21T08:13:13.610Z,190
2018-02-21T08:14:23.353Z,195
2018-02-21T08:15:33.385Z,200
2018-02-21T08:16:43.375Z,205
2018-02-21T08:17:53.099Z,205
2018-02-21T08:19:03.093Z,210
2018-02-21T08:20:12.812Z,210
2018-02-21T08:21:22.799Z,210
2018-02-21T08:22:32.522Z,215
2018-02-21T08:23:42.512Z,215
2018-02-21T08:24:52.499Z,215
2018-02-21T08:26:02.501Z,210
2018-02-21T08:27:12.500Z,215
2018-02-21T08:28:22.617Z,215
2018-02-21T08:29:32.344Z,215
2018-02-21T08:30:42.335Z,215
2018-02-21T08:31:52.323Z,215
2018-02-21T08:33:02.324Z,215
2018-02-21T08:34:12.051Z,220
2018-02-21T08:35:22.044Z,220
2018-02-21T08:36:31.771Z,225
2018-02-21T08:37:41.763Z,225
2018-02-21T08:38:51.750Z,225
2018-02-21T08:40:01.477Z,230
2018-02-21T08:41:11.201Z,230
2018-02-21T08:42:21.194Z,230
2018-02-21T08:43:31.186Z,230
2018-02-21T08:44:40.906Z,235
2018-02-21T08:45:50.890Z,235
2018-02-21T08:47:00.616Z,235
2018-02-21T08:48:10.617Z,235
2018-02-21T08:49:20.334Z,235
2018-02-21T08:50:30.324Z,235
2018-02-21T08:51:40.313Z,235
2018-02-21T08:52:50.030Z,235
2018-02-21T08:53:59.752Z,235
2018-02-21T08:55:09.470Z,240
2018-02-21T08:56:18.926Z,230
2018-02-21T08:57:28.913Z,225
2018-02-21T08:58:38.902Z,225
2018-02-21T08:59:48.360Z,225
2018-02-21T09:00:58.356Z,225
2018-02-21T09:02:08.345Z,225
2018-02-21T09:03:18.330Z,225
2018-02-21T09:04:28.328Z,230
2018-02-21T09:05:38.048Z,230
2018-02-21T09:06:48.131Z,235
2018-02-21T09:07:57.861Z,235
2018-02-21T09:09:07.582Z,240
2018-02-21T09:10:17.576Z,250
2018-02-21T09:11:27.563Z,250
2018-02-21T09:12:37.019Z,260
2018-02-21T09:13:47.010Z,275
2018-02-21T09:14:56.736Z,290
2018-02-21T09:16:06.733Z,295
2018-02-21T09:17:16.262Z,310
2018-02-21T09:18:26.043Z,325
2018-02-21T09:19:35.759Z,335
2018-02-21T09:20:45.748Z,350
2018-02-21T09:21:55.831Z,360
2018-02-21T09:23:05.833Z,360
2018-02-21T09:24:15.873Z,355
2018-02-21T09:25:25.596Z,360
2018-02-21T09:26:35.650Z,360
2018-02-21T09:27:45.644Z,360
2018-02-21T09:28:55.377Z,370
2018-02-21T09:30:05.201Z,380
2018-02-21T09:31:14.938Z,380
2018-02-21T09:32:24.396Z,365
2018-02-21T09:33:34.124Z,355
2018-02-21T09:34:43.867Z,365
2018-02-21T09:35:53.638Z,375
2018-02-21T09:37:03.761Z,385
2018-02-21T09:38:13.780Z,395
2018-02-21T09:39:23.501Z,410
2018-02-21T09:40:33.493Z,425
2018-02-21T09:41:43.478Z,430
2018-02-21T09:42:53.471Z,415
2018-02-21T09:44:03.215Z,390
2018-02-21T09:45:13.211Z,360
2018-02-21T09:46:22.939Z,345
2018-02-21T09:47:32.938Z,345
2018-02-21T09:48:42.662Z,350
2018-02-21T09:49:52.648Z,370
2018-02-21T09:51:02.375Z,390
2018-02-21T09:52:12.372Z,415
2018-02-21T09:53:21.829Z,435
2018-02-21T09:54:31.284Z,450
2018-02-21T09:55:41.281Z,460
2018-02-21T09:56:51.005Z,465
2018-02-21T09:58:00.728Z,475
2018-02-21T09:59:10.454Z,475
2018-02-21T10:00:20.484Z,465
2018-02-21T10:01:30.472Z,450
2018-02-21T10:02:40.202Z,435
2018-02-21T10:03:50.194Z,420
2018-02-21T10:04:59.920Z,405
2018-02-21T10:06:09.708Z,400
2018-02-21T10:07:18.902Z,405
2018-02-21T10:08:28.893Z,415
2018-02-21T10:09:38.881Z,425
2018-02-21T10:10:48.607Z,425
2018-02-21T10:11:58.627Z,420
2018-02-21T10:13:08.623Z,420
2018-02-21T10:14:18.344Z,430
2018-02-21T10:15:28.335Z,425
2018-02-21T10:16:38.324Z,420
2018-02-21T10:17:47.783Z,415
2018-02-21T10:18:57.777Z,410
2018-02-21T10:20:07.239Z,410
2018-02-21T10:21:16.990Z,405
2018-02-21T10:22:26.449Z,395
2018-02-21T10:23:36.446Z,400
2018-02-21T10:24:46.443Z,415
2018-02-21T10:25:56.491Z,450
2018-02-21T10:27:06.215Z,470
2018-02-21T10:28:16.224Z,475
2018-02-21T10:29:26.210Z,470
2018-02-21T10:30:36.202Z,455
2018-02-21T10:31:46.196Z,430
2018-02-21T10:32:56.193Z,415
2018-02-21T10:34:06.234Z,420
2018-02-21T10:35:15.963Z,425
2018-02-21T10:36:25.692Z,430
2018-02-21T10:37:35.685Z,440
2018-02-21T10:38:45.410Z,450
2018-02-21T10:39:54.868Z,470
2018-02-21T10:41:04.062Z,485
2018-02-21T10:42:13.797Z,510
2018-02-21T10:43:23.543Z,545
2018-02-21T10:44:33.538Z,565
2018-02-21T10:45:43.003Z,570
2018-02-21T10:46:52.998Z,560
2018-02-21T10:48:02.728Z,560
2018-02-21T10:49:12.459Z,550
2018-02-21T10:50:22.462Z,545
2018-02-21T10:51:32.193Z,530
2018-02-21T10:52:41.919Z,535
2018-02-21T10:53:51.644Z,555
2018-02-21T10:55:01.369Z,565
2018-02-21T10:56:11.365Z,555
2018-02-21T10:57:21.207Z,535
2018-02-21T10:58:30.933Z,505
2018-02-21T10:59:40.993Z,480
2018-02-21T11:00:50.465Z,460
2018-02-21T11:02:00.487Z,460
2018-02-21T11:03:10.220Z,465
2018-02-21T11:04:19.956Z,475
2018-02-21T11:05:29.430Z,500
2018-02-21T11:06:39.427Z,505
2018-02-21T11:07:49.173Z,495
2018-02-21T11:08:58.418Z,500
2018-02-21T11:10:08.426Z,510
2018-02-21T11:11:18.516Z,540
2018-02-21T11:12:28.515Z,555
2018-02-21T11:13:38.239Z,545
2018-02-21T11:14:48.011Z,515
2018-02-21T11:15:58.004Z,535
2018-02-21T11:17:07.737Z,560
2018-02-21T11:18:17.735Z,655
2018-02-21T11:19:27.467Z,750
2018-02-21T11:20:37.264Z,680
2018-02-21T11:21:47.257Z,650
2018-02-21T11:22:57.259Z,625
2018-02-21T11:24:07.262Z,620
2018-02-21T11:25:17.263Z,635
2018-02-21T11:26:26.730Z,655
2018-02-21T11:27:36.732Z,725
2018-02-21T11:28:46.740Z,710
2018-02-21T11:29:56.742Z,675
2018-02-21T11:31:06.474Z,670
2018-02-21T11:32:16.266Z,625
2018-02-21T11:33:26.270Z,595
2018-02-21T11:34:36.274Z,590
2018-02-21T11:35:46.270Z,545
2018-02-21T11:36:56.263Z,540
2018-02-21T11:38:05.792Z,545
2018-02-21T11:39:15.526Z,550
2018-02-21T11:40:25.520Z,555
2018-02-21T11:41:35.250Z,545
2018-02-21T11:42:44.713Z,545
2018-02-21T11:43:54.808Z,555
2018-02-21T11:45:04.808Z,555
2018-02-21T11:46:14.537Z,570
2018-02-21T11:47:24.004Z,580
2018-02-21T11:48:33.198Z,685
2018-02-21T11:49:43.206Z,580
2018-02-21T11:50:53.233Z,600
2018-02-21T11:52:02.970Z,615
2018-02-21T11:53:12.432Z,620
2018-02-21T11:54:22.166Z,605
2018-02-21T11:55:31.633Z,640
2018-02-21T11:56:41.628Z,665
2018-02-21T11:57:51.754Z,940
2018-02-21T11:59:01.496Z,825
2018-02-21T12:00:11.232Z,880
2018-02-21T12:01:21.232Z,670
2018-02-21T12:02:31.227Z,620
2018-02-21T12:03:41.221Z,595
2018-02-21T12:04:51.648Z,585
2018-02-21T12:06:01.668Z,575
2018-02-21T12:07:11.675Z,555
2018-02-21T12:08:21.404Z,535
2018-02-21T12:09:31.406Z,515
2018-02-21T12:10:41.411Z,480
2018-02-21T12:11:51.421Z,470
2018-02-21T12:13:01.419Z,475
2018-02-21T12:14:11.160Z,485
2018-02-21T12:15:20.904Z,495
2018-02-21T12:16:30.639Z,495
2018-02-21T12:17:39.835Z,505
2018-02-21T12:18:49.916Z,515
2018-02-21T12:19:59.910Z,515
2018-02-21T12:21:09.639Z,500
2018-02-21T12:22:19.643Z,505
2018-02-21T12:23:29.375Z,525
2018-02-21T12:24:39.434Z,540
2018-02-21T12:25:49.434Z,550
2018-02-21T12:26:58.898Z,555
2018-02-21T12:28:08.630Z,550
2018-02-21T12:29:18.365Z,540
2018-02-21T12:30:28.718Z,535
2018-02-21T12:31:38.723Z,530
2018-02-21T12:32:48.725Z,525
2018-02-21T12:33:58.458Z,535
2018-02-21T12:35:08.510Z,540
2018-02-21T12:36:17.976Z,560
2018-02-21T12:37:27.706Z,575
2018-02-21T12:38:37.438Z,580
2018-02-21T12:39:47.173Z,580
2018-02-21T12:40:56.648Z,540
2018-02-21T12:42:06.650Z,520
2018-02-21T12:43:16.390Z,505
2018-02-21T12:44:26.155Z,485
2018-02-21T12:45:35.891Z,470
2018-02-21T12:46:45.894Z,465
2018-02-21T12:47:55.997Z,455
2018-02-21T12:49:06.004Z,450
2018-02-21T12:50:16.133Z,465
2018-02-21T12:51:26.139Z,510
2018-02-21T12:52:35.873Z,605
2018-02-21T12:53:45.873Z,625
2018-02-21T12:54:55.877Z,625
2018-02-21T12:56:05.604Z,610
2018-02-21T12:57:15.331Z,635
2018-02-21T12:58:24.794Z,655
2018-02-21T12:59:34.794Z,675
2018-02-21T13:00:44.525Z,690
2018-02-21T13:01:54.524Z,645
2018-02-21T13:03:04.529Z,575
2018-02-21T13:04:14.522Z,520
2018-02-21T13:05:24.520Z,505
2018-02-21T13:06:34.521Z,515
2018-02-21T13:07:44.371Z,520
2018-02-21T13:08:54.108Z,520
2018-02-21T13:10:04.106Z,510
2018-02-21T13:11:14.108Z,515
2018-02-21T13:12:24.113Z,540
2018-02-21T13:13:33.844Z,560
2018-02-21T13:14:43.574Z,585
2018-02-21T13:15:53.320Z,600
2018-02-21T13:17:03.053Z,595
2018-02-21T13:18:12.786Z,590
2018-02-21T13:19:22.783Z,595
2018-02-21T13:20:32.518Z,600
2018-02-21T13:21:42.278Z,625
2018-02-21T13:22:52.282Z,640
2018-02-21T13:24:02.318Z,610
2018-02-21T13:25:12.050Z,595
2018-02-21T13:26:22.053Z,600
2018-02-21T13:27:31.779Z,560
2018-02-21T13:28:41.508Z,510
2018-02-21T13:29:51.503Z,495
2018-02-21T13:31:01.504Z,485
2018-02-21T13:32:11.237Z,480
2018-02-21T13:33:20.990Z,470
2018-02-21T13:34:30.724Z,455
2018-02-21T13:35:40.190Z,440
2018-02-21T13:36:49.653Z,415
2018-02-21T13:37:59.665Z,400
2018-02-21T13:39:09.668Z,395
2018-02-21T13:40:19.406Z,390
2018-02-21T13:41:29.407Z,395
2018-02-21T13:42:39.143Z,390
2018-02-21T13:43:49.138Z,390
2018-02-21T13:44:58.903Z,390
2018-02-21T13:46:08.636Z,385
2018-02-21T13:47:18.634Z,380
2018-02-21T13:48:28.366Z,385
2018-02-21T13:49:38.386Z,385
2018-02-21T13:50:48.383Z,385
2018-02-21T13:51:57.892Z,390
2018-02-21T13:53:07.624Z,395
2018-02-21T13:54:17.618Z,395
2018-02-21T13:55:27.531Z,395
2018-02-21T13:56:37.261Z,400
2018-02-21T13:57:47.255Z,415
2018-02-21T13:58:57.256Z,425
2018-02-21T14:00:07.000Z,435
2018-02-21T14:01:16.997Z,415
2018-02-21T14:02:26.992Z,380
2018-02-21T14:03:36.989Z,375
2018-02-21T14:04:46.832Z,375
2018-02-21T14:05:56.841Z,375
2018-02-21T14:07:06.573Z,370
2018-02-21T14:08:16.567Z,365
2018-02-21T14:09:26.566Z,360
2018-02-21T14:10:36.300Z,350
2018-02-21T14:11:46.303Z,345
2018-02-21T14:12:56.305Z,340
2018-02-21T14:14:06.313Z,335
2018-02-21T14:15:16.410Z,330
2018-02-21T14:16:26.416Z,335
2018-02-21T14:17:36.206Z,350
2018-02-21T14:18:46.203Z,345
2018-02-21T14:19:55.664Z,340
2018-02-21T14:21:05.665Z,330
2018-02-21T14:22:15.394Z,330
2018-02-21T14:23:25.392Z,330
2018-02-21T14:24:35.388Z,325
2018-02-21T14:25:45.382Z,325
2018-02-21T14:26:55.368Z,340
2018-02-21T14:28:05.099Z,365
2018-02-21T14:29:15.217Z,375
2018-02-21T14:30:25.214Z,400
2018-02-21T14:31:34.945Z,440
2018-02-21T14:32:44.680Z,465
2018-02-21T14:33:54.138Z,455
2018-02-21T14:35:03.875Z,430
2018-02-21T14:36:13.871Z,400
2018-02-21T14:37:23.595Z,355
2018-02-21T14:38:33.323Z,325
2018-02-21T14:39:43.320Z,310
2018-02-21T14:40:53.312Z,300
2018-02-21T14:42:03.325Z,310
2018-02-21T14:43:13.323Z,345
2018-02-21T14:44:23.316Z,365
2018-02-21T14:45:33.061Z,350
2018-02-21T14:46:42.801Z,320
2018-02-21T14:47:52.540Z,280
2018-02-21T14:49:02.536Z,245
2018-02-21T14:50:12.267Z,230
2018-02-21T14:51:22.008Z,215
2018-02-21T14:52:32.019Z,220
2018-02-21T14:53:42.020Z,235
2018-02-21T14:54:52.024Z,260
2018-02-21T14:56:01.777Z,265
2018-02-21T14:57:11.244Z,240
2018-02-21T14:58:20.984Z,230
2018-02-21T14:59:30.452Z,220
2018-02-21T15:00:40.192Z,220
2018-02-21T15:01:49.445Z,230
2018-02-21T15:02:59.180Z,240
2018-02-21T15:04:08.922Z,225
2018-02-21T15:05:18.656Z,225
2018-02-21T15:06:28.661Z,215
2018-02-21T15:07:38.392Z,205
2018-02-21T15:08:47.591Z,200
2018-02-21T15:09:57.326Z,200
2018-02-21T15:11:07.063Z,195
2018-02-21T15:12:17.076Z,195
2018-02-21T15:13:27.092Z,210
2018-02-21T15:14:36.834Z,215
2018-02-21T15:15:46.832Z,210
2018-02-21T15:16:56.606Z,195
2018-02-21T15:18:06.341Z,180
2018-02-21T15:19:16.367Z,155
2018-02-21T15:20:26.364Z,155
2018-02-21T15:21:36.095Z,150
2018-02-21T15:22:45.907Z,150
2018-02-21T15:23:55.190Z,150
2018-02-21T15:25:04.939Z,145
2018-02-21T15:26:14.746Z,140
2018-02-21T15:27:24.216Z,130
2018-02-21T15:28:33.947Z,120
2018-02-21T15:29:43.412Z,115
2018-02-21T15:30:53.419Z,105
2018-02-21T15:32:03.424Z,105
2018-02-21T15:33:13.426Z,105
2018-02-21T15:34:23.467Z,100
2018-02-21T15:35:33.465Z,100
2018-02-21T15:36:43.193Z,95
2018-02-21T15:37:53.188Z,95
2018-02-21T15:39:03.205Z,95
2018-02-21T15:40:13.204Z,100
2018-02-21T15:41:22.979Z,95
2018-02-21T15:42:33.010Z,95
2018-02-21T15:43:43.008Z,90
2018-02-21T15:44:52.749Z,85
2018-02-21T15:46:02.756Z,85
2018-02-21T15:47:12.904Z,80
2018-02-21T15:48:22.999Z,75
2018-02-21T15:49:32.732Z,75
2018-02-21T15:50:42.197Z,75
2018-02-21T15:51:52.196Z,70
2018-02-21T15:53:02.203Z,70
2018-02-21T15:54:12.354Z,65
2018-02-21T15:55:22.097Z,60
2018-02-21T15:56:31.022Z,60
2018-02-21T15:57:40.757Z,55
2018-02-21T15:58:50.217Z,55
2018-02-21T16:00:00.215Z,50
2018-02-21T16:01:09.964Z,50
2018-02-21T16:02:19.698Z,50
2018-02-21T16:03:29.425Z,50
2018-02-21T16:04:39.418Z,45
2018-02-21T16:05:49.144Z,40
2018-02-21T16:06:58.875Z,40
2018-02-21T16:08:08.876Z,40
2018-02-21T16:09:18.345Z,35
2018-02-21T16:10:28.345Z,35
2018-02-21T16:11:38.342Z,30
2018-02-21T16:12:48.338Z,30
2018-02-21T16:13:58.336Z,25
2018-02-21T16:15:08.335Z,25
2018-02-21T16:16:18.333Z,20
2018-02-21T16:17:28.327Z,20
2018-02-21T16:18:38.359Z,20
2018-02-21T16:19:48.349Z,15
2018-02-21T16:20:58.409Z,15
2018-02-21T16:22:08.467Z,15
2018-02-21T16:23:17.926Z,15
2018-02-21T16:24:27.656Z,10
2018-02-21T16:25:37.389Z,10
2018-02-21T16:26:47.123Z,10
2018-02-21T16:27:57.119Z,5
2018-02-21T16:29:06.842Z,5
2018-02-21T16:30:16.308Z,5
2018-02-21T16:31:26.041Z,5
2018-02-21T16:32:35.772Z,5
2018-02-21T16:33:45.776Z,5
2018-02-21T16:34:55.777Z,5
2018-02-21T16:36:05.505Z,0
2018-02-21T16:37:15.245Z,0